sensor_id;sensor_type;location;lat;lon;timestamp;temperature;humidity
85696;DHT22;76240;50.902;3.892;2024-02-26T00:01:49;6.90;93.60
85696;DHT22;76240;50.902;3.892;2024-02-26T00:04:15;6.90;93.90
85696;DHT22;76240;50.902;3.892;2024-02-26T00:06:42;6.90;93.70
85696;DHT22;76240;50.902;3.892;2024-02-26T00:09:09;6.80;93.70
85696;DHT22;76240;50.902;3.892;2024-02-26T00:11:38;6.90;93.60
85696;DHT22;76240;50.902;3.892;2024-02-26T00:14:04;6.80;93.60
85696;DHT22;76240;50.902;3.892;2024-02-26T00:16:31;6.80;93.50
85696;DHT22;76240;50.902;3.892;2024-02-26T00:18:57;6.80;93.70
85696;DHT22;76240;50.902;3.892;2024-02-26T00:21:24;6.90;93.80
85696;DHT22;76240;50.902;3.892;2024-02-26T00:23:50;6.80;93.70
85696;DHT22;76240;50.902;3.892;2024-02-26T00:26:16;6.80;93.80
85696;DHT22;76240;50.902;3.892;2024-02-26T00:28:43;6.80;94.00
85696;DHT22;76240;50.902;3.892;2024-02-26T00:31:09;6.80;93.80
85696;DHT22;76240;50.902;3.892;2024-02-26T00:33:35;6.80;93.90
85696;DHT22;76240;50.902;3.892;2024-02-26T00:36:01;6.70;94.00
85696;DHT22;76240;50.902;3.892;2024-02-26T00:38:27;6.70;94.10
85696;DHT22;76240;50.902;3.892;2024-02-26T00:40:52;6.70;94.00
85696;DHT22;76240;50.902;3.892;2024-02-26T00:43:18;6.80;94.00
85696;DHT22;76240;50.902;3.892;2024-02-26T00:45:44;6.70;94.10
85696;DHT22;76240;50.902;3.892;2024-02-26T00:48:12;6.70;94.10
85696;DHT22;76240;50.902;3.892;2024-02-26T00:50:39;6.70;94.10
85696;DHT22;76240;50.902;3.892;2024-02-26T00:53:05;6.80;94.30
85696;DHT22;76240;50.902;3.892;2024-02-26T00:55:32;6.70;94.40
85696;DHT22;76240;50.902;3.892;2024-02-26T00:57:58;6.80;94.10
85696;DHT22;76240;50.902;3.892;2024-02-26T01:00:23;6.80;94.10
85696;DHT22;76240;50.902;3.892;2024-02-26T01:02:49;6.70;94.50
85696;DHT22;76240;50.902;3.892;2024-02-26T01:05:15;6.70;94.50
85696;DHT22;76240;50.902;3.892;2024-02-26T01:07:42;6.60;94.70
85696;DHT22;76240;50.902;3.892;2024-02-26T01:10:08;6.70;94.90
85696;DHT22;76240;50.902;3.892;2024-02-26T01:12:34;6.70;94.60
85696;DHT22;76240;50.902;3.892;2024-02-26T01:15:01;6.70;94.50
85696;DHT22;76240;50.902;3.892;2024-02-26T01:17:28;6.70;94.90
85696;DHT22;76240;50.902;3.892;2024-02-26T01:19:54;6.70;94.90
85696;DHT22;76240;50.902;3.892;2024-02-26T01:22:20;6.60;95.10
85696;DHT22;76240;50.902;3.892;2024-02-26T01:24:46;6.60;94.70
85696;DHT22;76240;50.902;3.892;2024-02-26T01:27:12;6.60;94.70
85696;DHT22;76240;50.902;3.892;2024-02-26T01:29:40;6.60;94.80
85696;DHT22;76240;50.902;3.892;2024-02-26T01:32:06;6.60;94.80
85696;DHT22;76240;50.902;3.892;2024-02-26T01:34:32;6.60;94.90
85696;DHT22;76240;50.902;3.892;2024-02-26T01:36:58;6.60;94.90
85696;DHT22;76240;50.902;3.892;2024-02-26T01:39:24;6.70;94.80
85696;DHT22;76240;50.902;3.892;2024-02-26T01:41:50;6.70;94.60
85696;DHT22;76240;50.902;3.892;2024-02-26T01:44:16;6.70;94.70
85696;DHT22;76240;50.902;3.892;2024-02-26T01:46:42;6.70;94.70
85696;DHT22;76240;50.902;3.892;2024-02-26T01:49:11;6.60;94.40
85696;DHT22;76240;50.902;3.892;2024-02-26T01:51:39;6.60;94.50
85696;DHT22;76240;50.902;3.892;2024-02-26T01:54:06;6.60;94.70
85696;DHT22;76240;50.902;3.892;2024-02-26T01:56:34;6.60;94.90
85696;DHT22;76240;50.902;3.892;2024-02-26T01:59:01;6.60;94.90
85696;DHT22;76240;50.902;3.892;2024-02-26T02:01:31;6.60;94.80
85696;DHT22;76240;50.902;3.892;2024-02-26T02:03:58;6.60;94.50
85696;DHT22;76240;50.902;3.892;2024-02-26T02:06:25;6.60;94.90
85696;DHT22;76240;50.902;3.892;2024-02-26T02:08:52;6.50;95.20
85696;DHT22;76240;50.902;3.892;2024-02-26T02:11:19;6.60;94.90
85696;DHT22;76240;50.902;3.892;2024-02-26T02:13:45;6.60;95.00
85696;DHT22;76240;50.902;3.892;2024-02-26T02:16:12;6.50;95.20
85696;DHT22;76240;50.902;3.892;2024-02-26T02:18:38;6.50;94.90
85696;DHT22;76240;50.902;3.892;2024-02-26T02:21:04;6.60;94.70
85696;DHT22;76240;50.902;3.892;2024-02-26T02:23:30;6.60;95.20
85696;DHT22;76240;50.902;3.892;2024-02-26T02:25:57;6.60;94.90
85696;DHT22;76240;50.902;3.892;2024-02-26T02:28:25;6.60;94.90
85696;DHT22;76240;50.902;3.892;2024-02-26T02:30:51;6.60;95.20
85696;DHT22;76240;50.902;3.892;2024-02-26T02:33:18;6.50;95.40
85696;DHT22;76240;50.902;3.892;2024-02-26T02:35:44;6.50;95.30
85696;DHT22;76240;50.902;3.892;2024-02-26T02:38:09;6.50;95.40
85696;DHT22;76240;50.902;3.892;2024-02-26T02:40:35;6.60;95.20
85696;DHT22;76240;50.902;3.892;2024-02-26T02:43:02;6.50;95.30
85696;DHT22;76240;50.902;3.892;2024-02-26T02:45:28;6.50;94.90
85696;DHT22;76240;50.902;3.892;2024-02-26T02:47:54;6.50;95.20
85696;DHT22;76240;50.902;3.892;2024-02-26T02:50:20;6.50;95.00
85696;DHT22;76240;50.902;3.892;2024-02-26T02:52:46;6.60;94.90
85696;DHT22;76240;50.902;3.892;2024-02-26T02:55:13;6.50;95.30
85696;DHT22;76240;50.902;3.892;2024-02-26T02:57:39;6.50;95.40
85696;DHT22;76240;50.902;3.892;2024-02-26T03:00:09;6.50;95.20
85696;DHT22;76240;50.902;3.892;2024-02-26T03:02:35;6.40;95.30
85696;DHT22;76240;50.902;3.892;2024-02-26T03:05:04;6.50;95.00
85696;DHT22;76240;50.902;3.892;2024-02-26T03:07:30;6.50;95.00
85696;DHT22;76240;50.902;3.892;2024-02-26T03:09:56;6.50;95.00
85696;DHT22;76240;50.902;3.892;2024-02-26T03:12:22;6.50;95.20
85696;DHT22;76240;50.902;3.892;2024-02-26T03:14:48;6.50;95.20
85696;DHT22;76240;50.902;3.892;2024-02-26T03:17:14;6.50;95.20
85696;DHT22;76240;50.902;3.892;2024-02-26T03:19:40;6.50;95.40
85696;DHT22;76240;50.902;3.892;2024-02-26T03:22:06;6.50;95.20
85696;DHT22;76240;50.902;3.892;2024-02-26T03:24:32;6.40;95.10
85696;DHT22;76240;50.902;3.892;2024-02-26T03:26:58;6.40;95.20
85696;DHT22;76240;50.902;3.892;2024-02-26T03:29:24;6.50;95.10
85696;DHT22;76240;50.902;3.892;2024-02-26T03:31:50;6.50;95.20
85696;DHT22;76240;50.902;3.892;2024-02-26T03:34:16;6.40;95.30
85696;DHT22;76240;50.902;3.892;2024-02-26T03:36:43;6.40;95.30
85696;DHT22;76240;50.902;3.892;2024-02-26T03:39:09;6.40;95.30
85696;DHT22;76240;50.902;3.892;2024-02-26T03:41:35;6.30;95.40
85696;DHT22;76240;50.902;3.892;2024-02-26T03:44:01;6.40;95.30
85696;DHT22;76240;50.902;3.892;2024-02-26T03:46:27;6.30;95.40
85696;DHT22;76240;50.902;3.892;2024-02-26T03:48:53;6.40;95.50
85696;DHT22;76240;50.902;3.892;2024-02-26T03:51:20;6.40;95.40
85696;DHT22;76240;50.902;3.892;2024-02-26T03:53:45;6.30;95.40
85696;DHT22;76240;50.902;3.892;2024-02-26T03:56:12;6.40;95.50
85696;DHT22;76240;50.902;3.892;2024-02-26T03:58:41;6.30;95.20
85696;DHT22;76240;50.902;3.892;2024-02-26T04:01:08;6.40;95.50
85696;DHT22;76240;50.902;3.892;2024-02-26T04:03:34;6.30;95.40
85696;DHT22;76240;50.902;3.892;2024-02-26T04:06:01;6.30;95.30
85696;DHT22;76240;50.902;3.892;2024-02-26T04:08:27;6.30;95.20
85696;DHT22;76240;50.902;3.892;2024-02-26T04:10:53;6.30;95.60
85696;DHT22;76240;50.902;3.892;2024-02-26T04:13:19;6.40;95.30
85696;DHT22;76240;50.902;3.892;2024-02-26T04:15:45;6.40;95.20
85696;DHT22;76240;50.902;3.892;2024-02-26T04:18:13;6.30;95.50
85696;DHT22;76240;50.902;3.892;2024-02-26T04:20:39;6.30;95.30
85696;DHT22;76240;50.902;3.892;2024-02-26T04:23:07;6.30;95.60
85696;DHT22;76240;50.902;3.892;2024-02-26T04:25:33;6.30;95.60
85696;DHT22;76240;50.902;3.892;2024-02-26T04:27:59;6.30;95.50
85696;DHT22;76240;50.902;3.892;2024-02-26T04:30:25;6.30;95.60
85696;DHT22;76240;50.902;3.892;2024-02-26T04:32:51;6.30;95.50
85696;DHT22;76240;50.902;3.892;2024-02-26T04:35:17;6.30;95.30
85696;DHT22;76240;50.902;3.892;2024-02-26T04:37:43;6.30;95.20
85696;DHT22;76240;50.902;3.892;2024-02-26T04:40:09;6.30;95.30
85696;DHT22;76240;50.902;3.892;2024-02-26T04:42:35;6.30;95.20
85696;DHT22;76240;50.902;3.892;2024-02-26T04:45:01;6.30;95.50
85696;DHT22;76240;50.902;3.892;2024-02-26T04:47:27;6.20;95.50
85696;DHT22;76240;50.902;3.892;2024-02-26T04:49:53;6.30;95.60
85696;DHT22;76240;50.902;3.892;2024-02-26T04:52:19;6.30;95.40
85696;DHT22;76240;50.902;3.892;2024-02-26T04:54:45;6.30;95.40
85696;DHT22;76240;50.902;3.892;2024-02-26T04:57:12;6.30;95.50
85696;DHT22;76240;50.902;3.892;2024-02-26T04:59:37;6.30;95.40
85696;DHT22;76240;50.902;3.892;2024-02-26T05:02:03;6.30;95.50
85696;DHT22;76240;50.902;3.892;2024-02-26T05:04:29;6.30;95.40
85696;DHT22;76240;50.902;3.892;2024-02-26T05:06:55;6.30;95.10
85696;DHT22;76240;50.902;3.892;2024-02-26T05:09:22;6.30;95.20
85696;DHT22;76240;50.902;3.892;2024-02-26T05:11:47;6.40;95.50
85696;DHT22;76240;50.902;3.892;2024-02-26T05:14:16;6.40;94.80
85696;DHT22;76240;50.902;3.892;2024-02-26T05:16:42;6.40;95.10
85696;DHT22;76240;50.902;3.892;2024-02-26T05:19:07;6.40;95.30
85696;DHT22;76240;50.902;3.892;2024-02-26T05:21:33;6.40;94.90
85696;DHT22;76240;50.902;3.892;2024-02-26T05:23:59;6.40;94.90
85696;DHT22;76240;50.902;3.892;2024-02-26T05:26:26;6.40;94.90
85696;DHT22;76240;50.902;3.892;2024-02-26T05:28:52;6.40;95.30
85696;DHT22;76240;50.902;3.892;2024-02-26T05:31:18;6.40;95.10
85696;DHT22;76240;50.902;3.892;2024-02-26T05:33:44;6.50;95.00
85696;DHT22;76240;50.902;3.892;2024-02-26T05:36:10;6.40;95.30
85696;DHT22;76240;50.902;3.892;2024-02-26T05:38:36;6.40;95.20
85696;DHT22;76240;50.902;3.892;2024-02-26T05:41:02;6.40;95.10
85696;DHT22;76240;50.902;3.892;2024-02-26T05:43:30;6.40;95.20
85696;DHT22;76240;50.902;3.892;2024-02-26T05:45:56;6.40;95.20
85696;DHT22;76240;50.902;3.892;2024-02-26T05:48:21;6.40;95.50
85696;DHT22;76240;50.902;3.892;2024-02-26T05:50:47;6.50;95.20
85696;DHT22;76240;50.902;3.892;2024-02-26T05:53:14;6.40;95.20
85696;DHT22;76240;50.902;3.892;2024-02-26T05:55:40;6.50;95.20
85696;DHT22;76240;50.902;3.892;2024-02-26T05:58:06;6.40;95.20
85696;DHT22;76240;50.902;3.892;2024-02-26T06:00:31;6.40;95.40
85696;DHT22;76240;50.902;3.892;2024-02-26T06:02:57;6.40;95.40
85696;DHT22;76240;50.902;3.892;2024-02-26T06:05:23;6.40;95.30
85696;DHT22;76240;50.902;3.892;2024-02-26T06:07:49;6.40;95.50
85696;DHT22;76240;50.902;3.892;2024-02-26T06:10:15;6.40;95.60
85696;DHT22;76240;50.902;3.892;2024-02-26T06:12:41;6.40;95.70
85696;DHT22;76240;50.902;3.892;2024-02-26T06:15:07;6.40;95.50
85696;DHT22;76240;50.902;3.892;2024-02-26T06:17:34;6.40;95.40
85696;DHT22;76240;50.902;3.892;2024-02-26T06:20:00;6.40;95.40
85696;DHT22;76240;50.902;3.892;2024-02-26T06:22:26;6.50;95.00
85696;DHT22;76240;50.902;3.892;2024-02-26T06:24:52;6.50;95.30
85696;DHT22;76240;50.902;3.892;2024-02-26T06:27:18;6.50;95.20
85696;DHT22;76240;50.902;3.892;2024-02-26T06:29:44;6.40;95.20
85696;DHT22;76240;50.902;3.892;2024-02-26T06:32:10;6.50;95.20
85696;DHT22;76240;50.902;3.892;2024-02-26T06:34:36;6.40;95.20
85696;DHT22;76240;50.902;3.892;2024-02-26T06:37:03;6.40;95.60
85696;DHT22;76240;50.902;3.892;2024-02-26T06:39:29;6.40;95.10
85696;DHT22;76240;50.902;3.892;2024-02-26T06:41:55;6.40;94.80
85696;DHT22;76240;50.902;3.892;2024-02-26T06:44:26;6.40;94.90
85696;DHT22;76240;50.902;3.892;2024-02-26T06:46:58;6.50;94.80
85696;DHT22;76240;50.902;3.892;2024-02-26T06:49:25;6.40;95.20
85696;DHT22;76240;50.902;3.892;2024-02-26T06:51:51;6.40;95.10
85696;DHT22;76240;50.902;3.892;2024-02-26T06:54:17;6.40;94.80
85696;DHT22;76240;50.902;3.892;2024-02-26T06:56:44;6.40;94.80
85696;DHT22;76240;50.902;3.892;2024-02-26T06:59:10;6.40;94.90
85696;DHT22;76240;50.902;3.892;2024-02-26T07:01:36;6.50;94.80
85696;DHT22;76240;50.902;3.892;2024-02-26T07:04:02;6.50;94.80
85696;DHT22;76240;50.902;3.892;2024-02-26T07:06:28;6.50;94.80
85696;DHT22;76240;50.902;3.892;2024-02-26T07:08:54;6.40;95.00
85696;DHT22;76240;50.902;3.892;2024-02-26T07:11:20;6.40;95.10
85696;DHT22;76240;50.902;3.892;2024-02-26T07:13:47;6.40;95.80
85696;DHT22;76240;50.902;3.892;2024-02-26T07:16:13;6.40;95.30
85696;DHT22;76240;50.902;3.892;2024-02-26T07:18:42;6.40;95.20
85696;DHT22;76240;50.902;3.892;2024-02-26T07:21:09;6.30;95.20
85696;DHT22;76240;50.902;3.892;2024-02-26T07:23:35;6.30;95.30
85696;DHT22;76240;50.902;3.892;2024-02-26T07:26:01;6.30;95.30
85696;DHT22;76240;50.902;3.892;2024-02-26T07:28:26;6.30;95.20
85696;DHT22;76240;50.902;3.892;2024-02-26T07:30:52;6.30;95.60
85696;DHT22;76240;50.902;3.892;2024-02-26T07:33:18;6.30;95.90
85696;DHT22;76240;50.902;3.892;2024-02-26T07:35:44;6.30;95.70
85696;DHT22;76240;50.902;3.892;2024-02-26T07:38:10;6.30;95.90
85696;DHT22;76240;50.902;3.892;2024-02-26T07:40:38;6.20;96.00
85696;DHT22;76240;50.902;3.892;2024-02-26T07:43:04;6.20;96.00
85696;DHT22;76240;50.902;3.892;2024-02-26T07:45:30;6.30;95.80
85696;DHT22;76240;50.902;3.892;2024-02-26T07:47:56;6.30;95.90
85696;DHT22;76240;50.902;3.892;2024-02-26T07:50:22;6.30;95.70
85696;DHT22;76240;50.902;3.892;2024-02-26T07:52:48;6.30;95.70
85696;DHT22;76240;50.902;3.892;2024-02-26T07:55:13;6.20;96.00
85696;DHT22;76240;50.902;3.892;2024-02-26T07:57:42;6.20;96.00
85696;DHT22;76240;50.902;3.892;2024-02-26T08:00:09;6.10;96.00
85696;DHT22;76240;50.902;3.892;2024-02-26T08:02:36;6.10;96.30
85696;DHT22;76240;50.902;3.892;2024-02-26T08:05:02;6.10;95.80
85696;DHT22;76240;50.902;3.892;2024-02-26T08:07:28;6.10;96.10
85696;DHT22;76240;50.902;3.892;2024-02-26T08:09:54;6.10;96.00
85696;DHT22;76240;50.902;3.892;2024-02-26T08:12:20;6.10;95.80
85696;DHT22;76240;50.902;3.892;2024-02-26T08:14:46;6.10;96.10
85696;DHT22;76240;50.902;3.892;2024-02-26T08:17:12;6.10;95.90
85696;DHT22;76240;50.902;3.892;2024-02-26T08:19:38;6.10;96.00
85696;DHT22;76240;50.902;3.892;2024-02-26T08:22:04;6.20;95.70
85696;DHT22;76240;50.902;3.892;2024-02-26T08:24:30;6.20;95.70
85696;DHT22;76240;50.902;3.892;2024-02-26T08:26:56;6.20;95.70
85696;DHT22;76240;50.902;3.892;2024-02-26T08:29:22;6.20;95.70
85696;DHT22;76240;50.902;3.892;2024-02-26T08:31:48;6.10;95.80
85696;DHT22;76240;50.902;3.892;2024-02-26T08:34:14;6.10;95.80
85696;DHT22;76240;50.902;3.892;2024-02-26T08:36:40;6.20;95.50
85696;DHT22;76240;50.902;3.892;2024-02-26T08:39:06;6.20;95.90
85696;DHT22;76240;50.902;3.892;2024-02-26T08:41:34;6.20;95.50
85696;DHT22;76240;50.902;3.892;2024-02-26T08:44:00;6.30;95.10
85696;DHT22;76240;50.902;3.892;2024-02-26T08:46:26;6.30;95.20
85696;DHT22;76240;50.902;3.892;2024-02-26T08:48:52;6.20;95.40
85696;DHT22;76240;50.902;3.892;2024-02-26T08:51:18;6.20;95.60
85696;DHT22;76240;50.902;3.892;2024-02-26T08:53:44;6.10;95.30
85696;DHT22;76240;50.902;3.892;2024-02-26T08:56:10;6.20;95.30
85696;DHT22;76240;50.902;3.892;2024-02-26T08:58:43;6.20;95.10
85696;DHT22;76240;50.902;3.892;2024-02-26T09:01:09;6.20;95.50
85696;DHT22;76240;50.902;3.892;2024-02-26T09:03:35;6.20;95.20
85696;DHT22;76240;50.902;3.892;2024-02-26T09:06:01;6.20;95.00
85696;DHT22;76240;50.902;3.892;2024-02-26T09:08:27;6.20;94.90
85696;DHT22;76240;50.902;3.892;2024-02-26T09:10:53;6.20;95.10
85696;DHT22;76240;50.902;3.892;2024-02-26T09:13:19;6.20;94.80
85696;DHT22;76240;50.902;3.892;2024-02-26T09:15:45;6.20;94.50
85696;DHT22;76240;50.902;3.892;2024-02-26T09:18:11;6.20;95.10
85696;DHT22;76240;50.902;3.892;2024-02-26T09:20:37;6.30;94.80
85696;DHT22;76240;50.902;3.892;2024-02-26T09:23:03;6.30;94.40
85696;DHT22;76240;50.902;3.892;2024-02-26T09:25:29;6.30;94.10
85696;DHT22;76240;50.902;3.892;2024-02-26T09:27:55;6.20;94.60
85696;DHT22;76240;50.902;3.892;2024-02-26T09:30:20;6.20;95.10
85696;DHT22;76240;50.902;3.892;2024-02-26T09:32:47;6.20;94.90
85696;DHT22;76240;50.902;3.892;2024-02-26T09:35:16;6.20;95.20
85696;DHT22;76240;50.902;3.892;2024-02-26T09:37:42;6.20;95.50
85696;DHT22;76240;50.902;3.892;2024-02-26T09:40:10;6.20;95.20
85696;DHT22;76240;50.902;3.892;2024-02-26T09:42:44;6.20;95.20
85696;DHT22;76240;50.902;3.892;2024-02-26T09:45:14;6.20;94.80
85696;DHT22;76240;50.902;3.892;2024-02-26T09:47:43;6.10;95.20
85696;DHT22;76240;50.902;3.892;2024-02-26T09:50:10;6.10;95.70
85696;DHT22;76240;50.902;3.892;2024-02-26T09:52:40;6.10;95.20
85696;DHT22;76240;50.902;3.892;2024-02-26T09:55:08;6.10;95.80
85696;DHT22;76240;50.902;3.892;2024-02-26T09:57:37;6.10;95.80
85696;DHT22;76240;50.902;3.892;2024-02-26T10:00:04;6.20;95.50
85696;DHT22;76240;50.902;3.892;2024-02-26T10:02:33;6.10;95.70
85696;DHT22;76240;50.902;3.892;2024-02-26T10:05:02;6.20;95.30
85696;DHT22;76240;50.902;3.892;2024-02-26T10:07:30;6.10;95.70
85696;DHT22;76240;50.902;3.892;2024-02-26T10:09:57;6.20;95.60
85696;DHT22;76240;50.902;3.892;2024-02-26T10:12:23;6.20;95.20
85696;DHT22;76240;50.902;3.892;2024-02-26T10:14:51;6.10;95.70
85696;DHT22;76240;50.902;3.892;2024-02-26T10:17:19;6.10;95.70
85696;DHT22;76240;50.902;3.892;2024-02-26T10:19:46;6.00;95.80
85696;DHT22;76240;50.902;3.892;2024-02-26T10:22:12;6.00;95.90
85696;DHT22;76240;50.902;3.892;2024-02-26T10:24:37;6.00;95.90
85696;DHT22;76240;50.902;3.892;2024-02-26T10:27:04;6.00;95.90
85696;DHT22;76240;50.902;3.892;2024-02-26T10:29:30;6.00;95.70
85696;DHT22;76240;50.902;3.892;2024-02-26T10:31:56;6.00;95.50
85696;DHT22;76240;50.902;3.892;2024-02-26T10:34:22;6.00;95.70
85696;DHT22;76240;50.902;3.892;2024-02-26T10:36:49;6.00;95.80
85696;DHT22;76240;50.902;3.892;2024-02-26T10:39:15;5.90;96.00
85696;DHT22;76240;50.902;3.892;2024-02-26T10:41:42;6.00;96.10
85696;DHT22;76240;50.902;3.892;2024-02-26T10:44:11;6.00;95.70
85696;DHT22;76240;50.902;3.892;2024-02-26T10:46:41;6.00;95.90
85696;DHT22;76240;50.902;3.892;2024-02-26T10:49:14;6.00;96.10
85696;DHT22;76240;50.902;3.892;2024-02-26T10:51:43;5.90;96.00
85696;DHT22;76240;50.902;3.892;2024-02-26T10:54:12;6.00;96.00
85696;DHT22;76240;50.902;3.892;2024-02-26T10:56:41;6.00;95.90
85696;DHT22;76240;50.902;3.892;2024-02-26T10:59:10;6.00;95.80
85696;DHT22;76240;50.902;3.892;2024-02-26T11:01:39;5.90;96.00
85696;DHT22;76240;50.902;3.892;2024-02-26T11:04:07;6.00;95.40
85696;DHT22;76240;50.902;3.892;2024-02-26T11:06:34;5.90;95.90
85696;DHT22;76240;50.902;3.892;2024-02-26T11:09:02;5.90;95.90
85696;DHT22;76240;50.902;3.892;2024-02-26T11:11:29;5.90;95.80
85696;DHT22;76240;50.902;3.892;2024-02-26T11:13:56;5.90;96.30
85696;DHT22;76240;50.902;3.892;2024-02-26T11:16:23;5.90;95.90
85696;DHT22;76240;50.902;3.892;2024-02-26T11:18:49;5.90;95.70
85696;DHT22;76240;50.902;3.892;2024-02-26T11:21:19;5.90;95.50
85696;DHT22;76240;50.902;3.892;2024-02-26T11:23:48;5.90;95.70
85696;DHT22;76240;50.902;3.892;2024-02-26T11:26:16;5.90;95.60
85696;DHT22;76240;50.902;3.892;2024-02-26T11:28:44;5.90;95.90
85696;DHT22;76240;50.902;3.892;2024-02-26T11:31:10;5.90;95.30
85696;DHT22;76240;50.902;3.892;2024-02-26T11:33:38;5.90;95.30
85696;DHT22;76240;50.902;3.892;2024-02-26T11:36:11;5.90;95.60
85696;DHT22;76240;50.902;3.892;2024-02-26T11:38:37;5.90;95.80
85696;DHT22;76240;50.902;3.892;2024-02-26T11:41:04;5.90;95.70
85696;DHT22;76240;50.902;3.892;2024-02-26T11:43:53;5.90;95.60
85696;DHT22;76240;50.902;3.892;2024-02-26T11:46:30;5.90;95.90
85696;DHT22;76240;50.902;3.892;2024-02-26T11:49:02;5.90;95.40
85696;DHT22;76240;50.902;3.892;2024-02-26T11:51:33;6.00;95.40
85696;DHT22;76240;50.902;3.892;2024-02-26T11:53:59;6.00;95.20
85696;DHT22;76240;50.902;3.892;2024-02-26T11:56:25;6.00;94.60
85696;DHT22;76240;50.902;3.892;2024-02-26T11:59:04;6.00;95.40
85696;DHT22;76240;50.902;3.892;2024-02-26T12:01:50;6.00;95.00
85696;DHT22;76240;50.902;3.892;2024-02-26T12:04:19;6.00;95.40
85696;DHT22;76240;50.902;3.892;2024-02-26T12:07:05;5.90;95.60
85696;DHT22;76240;50.902;3.892;2024-02-26T12:09:32;5.90;95.20
85696;DHT22;76240;50.902;3.892;2024-02-26T12:11:58;5.90;95.70
85696;DHT22;76240;50.902;3.892;2024-02-26T12:14:27;5.90;95.70
85696;DHT22;76240;50.902;3.892;2024-02-26T12:16:55;5.90;95.20
85696;DHT22;76240;50.902;3.892;2024-02-26T12:19:22;5.90;94.90
85696;DHT22;76240;50.902;3.892;2024-02-26T12:21:52;6.00;95.60
85696;DHT22;76240;50.902;3.892;2024-02-26T12:24:20;6.00;95.10
85696;DHT22;76240;50.902;3.892;2024-02-26T12:26:46;6.00;94.60
85696;DHT22;76240;50.902;3.892;2024-02-26T12:29:12;6.00;94.40
85696;DHT22;76240;50.902;3.892;2024-02-26T12:31:39;5.90;95.50
85696;DHT22;76240;50.902;3.892;2024-02-26T12:34:06;5.90;95.30
85696;DHT22;76240;50.902;3.892;2024-02-26T12:36:34;6.00;95.60
85696;DHT22;76240;50.902;3.892;2024-02-26T12:39:01;6.00;95.20
85696;DHT22;76240;50.902;3.892;2024-02-26T12:41:28;6.00;94.90
85696;DHT22;76240;50.902;3.892;2024-02-26T12:43:55;6.00;95.30
85696;DHT22;76240;50.902;3.892;2024-02-26T12:46:21;6.00;94.80
85696;DHT22;76240;50.902;3.892;2024-02-26T12:48:47;6.00;95.40
85696;DHT22;76240;50.902;3.892;2024-02-26T12:51:15;6.10;95.10
85696;DHT22;76240;50.902;3.892;2024-02-26T12:53:41;6.10;94.80
85696;DHT22;76240;50.902;3.892;2024-02-26T12:56:09;6.10;95.30
85696;DHT22;76240;50.902;3.892;2024-02-26T12:58:36;6.20;95.30
85696;DHT22;76240;50.902;3.892;2024-02-26T13:01:05;6.10;95.20
85696;DHT22;76240;50.902;3.892;2024-02-26T13:03:33;6.10;95.20
85696;DHT22;76240;50.902;3.892;2024-02-26T13:06:00;6.00;95.10
85696;DHT22;76240;50.902;3.892;2024-02-26T13:08:26;6.00;95.40
85696;DHT22;76240;50.902;3.892;2024-02-26T13:10:52;6.00;95.40
85696;DHT22;76240;50.902;3.892;2024-02-26T13:13:19;6.00;95.60
85696;DHT22;76240;50.902;3.892;2024-02-26T13:15:45;6.20;94.60
85696;DHT22;76240;50.902;3.892;2024-02-26T13:18:15;6.10;94.60
85696;DHT22;76240;50.902;3.892;2024-02-26T13:20:41;6.00;94.80
85696;DHT22;76240;50.902;3.892;2024-02-26T13:23:10;6.00;95.10
85696;DHT22;76240;50.902;3.892;2024-02-26T13:25:36;6.00;95.20
85696;DHT22;76240;50.902;3.892;2024-02-26T13:30:39;6.00;94.70
85696;DHT22;76240;50.902;3.892;2024-02-26T13:33:10;6.00;95.20
85696;DHT22;76240;50.902;3.892;2024-02-26T13:35:36;6.10;95.10
85696;DHT22;76240;50.902;3.892;2024-02-26T13:38:02;6.00;94.70
85696;DHT22;76240;50.902;3.892;2024-02-26T13:40:29;6.00;95.10
85696;DHT22;76240;50.902;3.892;2024-02-26T13:42:55;6.10;94.90
85696;DHT22;76240;50.902;3.892;2024-02-26T13:45:21;6.10;94.60
85696;DHT22;76240;50.902;3.892;2024-02-26T13:47:47;6.10;95.30
85696;DHT22;76240;50.902;3.892;2024-02-26T13:50:13;6.00;95.10
85696;DHT22;76240;50.902;3.892;2024-02-26T13:52:39;6.00;95.20
85696;DHT22;76240;50.902;3.892;2024-02-26T13:55:05;6.00;94.90
85696;DHT22;76240;50.902;3.892;2024-02-26T13:57:31;6.00;95.40
85696;DHT22;76240;50.902;3.892;2024-02-26T13:59:57;6.00;95.20
85696;DHT22;76240;50.902;3.892;2024-02-26T14:02:23;6.00;95.10
85696;DHT22;76240;50.902;3.892;2024-02-26T14:04:49;6.10;95.40
85696;DHT22;76240;50.902;3.892;2024-02-26T14:07:15;6.10;95.50
85696;DHT22;76240;50.902;3.892;2024-02-26T14:09:42;6.10;94.90
85696;DHT22;76240;50.902;3.892;2024-02-26T14:12:09;6.10;95.10
85696;DHT22;76240;50.902;3.892;2024-02-26T14:14:35;6.10;95.50
85696;DHT22;76240;50.902;3.892;2024-02-26T14:17:04;6.10;95.40
85696;DHT22;76240;50.902;3.892;2024-02-26T14:19:30;6.10;95.30
85696;DHT22;76240;50.902;3.892;2024-02-26T14:21:56;6.20;95.40
85696;DHT22;76240;50.902;3.892;2024-02-26T14:24:22;6.30;95.50
85696;DHT22;76240;50.902;3.892;2024-02-26T14:26:48;6.20;95.40
85696;DHT22;76240;50.902;3.892;2024-02-26T14:29:14;6.30;95.70
85696;DHT22;76240;50.902;3.892;2024-02-26T14:31:41;6.20;95.10
85696;DHT22;76240;50.902;3.892;2024-02-26T14:34:07;6.20;95.20
85696;DHT22;76240;50.902;3.892;2024-02-26T14:36:34;6.20;95.20
85696;DHT22;76240;50.902;3.892;2024-02-26T14:39:00;6.20;95.40
85696;DHT22;76240;50.902;3.892;2024-02-26T14:41:26;6.20;95.10
85696;DHT22;76240;50.902;3.892;2024-02-26T14:43:52;6.10;95.50
85696;DHT22;76240;50.902;3.892;2024-02-26T14:46:18;6.10;95.60
85696;DHT22;76240;50.902;3.892;2024-02-26T14:48:44;6.10;95.20
85696;DHT22;76240;50.902;3.892;2024-02-26T14:51:10;6.20;94.60
85696;DHT22;76240;50.902;3.892;2024-02-26T14:53:36;6.00;95.30
85696;DHT22;76240;50.902;3.892;2024-02-26T14:56:02;6.20;95.20
85696;DHT22;76240;50.902;3.892;2024-02-26T14:58:28;6.10;95.10
85696;DHT22;76240;50.902;3.892;2024-02-26T15:00:53;6.00;95.10
85696;DHT22;76240;50.902;3.892;2024-02-26T15:03:20;6.00;95.30
85696;DHT22;76240;50.902;3.892;2024-02-26T15:05:45;6.00;95.80
85696;DHT22;76240;50.902;3.892;2024-02-26T15:08:11;6.00;95.80
85696;DHT22;76240;50.902;3.892;2024-02-26T15:10:40;6.00;95.30
85696;DHT22;76240;50.902;3.892;2024-02-26T15:13:12;6.00;95.60
85696;DHT22;76240;50.902;3.892;2024-02-26T15:15:40;6.00;95.60
85696;DHT22;76240;50.902;3.892;2024-02-26T15:18:07;6.00;95.30
85696;DHT22;76240;50.902;3.892;2024-02-26T15:20:33;6.00;95.60
85696;DHT22;76240;50.902;3.892;2024-02-26T15:22:59;6.10;95.70
85696;DHT22;76240;50.902;3.892;2024-02-26T15:25:25;6.10;95.50
85696;DHT22;76240;50.902;3.892;2024-02-26T15:27:51;6.10;95.30
85696;DHT22;76240;50.902;3.892;2024-02-26T15:30:17;6.10;95.40
85696;DHT22;76240;50.902;3.892;2024-02-26T15:32:43;6.10;95.50
85696;DHT22;76240;50.902;3.892;2024-02-26T15:35:10;6.10;95.30
85696;DHT22;76240;50.902;3.892;2024-02-26T15:37:36;6.10;95.60
85696;DHT22;76240;50.902;3.892;2024-02-26T15:40:01;6.10;94.90
85696;DHT22;76240;50.902;3.892;2024-02-26T15:42:32;6.10;95.10
85696;DHT22;76240;50.902;3.892;2024-02-26T15:44:58;6.10;95.20